sensor_id;sensor_type;location;lat;lon;timestamp;P1;durP1;ratioP1;P2;durP2;ratioP2
1765;SDS011;880;52.452;8.656;2023-08-01T00:00:46;3.17;;;2.97;;
1765;SDS011;880;52.452;8.656;2023-08-01T00:03:14;4.00;;;3.65;;
1765;SDS011;880;52.452;8.656;2023-08-01T00:05:41;3.28;;;3.08;;
1765;SDS011;880;52.452;8.656;2023-08-01T00:08:11;3.35;;;3.15;;
1765;SDS011;880;52.452;8.656;2023-08-01T00:10:39;3.90;;;3.40;;
1765;SDS011;880;52.452;8.656;2023-08-01T00:13:07;3.33;;;3.03;;
1765;SDS011;880;52.452;8.656;2023-08-01T00:15:35;3.28;;;3.08;;
1765;SDS011;880;52.452;8.656;2023-08-01T00:18:02;4.72;;;4.35;;
1765;SDS011;880;52.452;8.656;2023-08-01T00:20:29;4.85;;;3.20;;
1765;SDS011;880;52.452;8.656;2023-08-01T00:22:56;3.35;;;3.10;;
1765;SDS011;880;52.452;8.656;2023-08-01T00:25:23;3.65;;;3.28;;
1765;SDS011;880;52.452;8.656;2023-08-01T00:27:50;3.83;;;3.53;;
1765;SDS011;880;52.452;8.656;2023-08-01T00:30:17;3.42;;;3.13;;
1765;SDS011;880;52.452;8.656;2023-08-01T00:32:50;4.22;;;3.88;;
1765;SDS011;880;52.452;8.656;2023-08-01T00:35:18;3.58;;;3.17;;
1765;SDS011;880;52.452;8.656;2023-08-01T00:37:45;4.55;;;4.15;;
1765;SDS011;880;52.452;8.656;2023-08-01T00:40:12;4.43;;;3.70;;
1765;SDS011;880;52.452;8.656;2023-08-01T00:42:39;4.93;;;4.35;;
1765;SDS011;880;52.452;8.656;2023-08-01T00:45:06;5.38;;;4.97;;
1765;SDS011;880;52.452;8.656;2023-08-01T00:47:34;7.78;;;4.05;;
1765;SDS011;880;52.452;8.656;2023-08-01T00:50:02;4.53;;;4.22;;
1765;SDS011;880;52.452;8.656;2023-08-01T00:52:29;4.07;;;3.67;;
1765;SDS011;880;52.452;8.656;2023-08-01T00:54:57;4.85;;;4.38;;
1765;SDS011;880;52.452;8.656;2023-08-01T00:57:24;5.38;;;4.90;;
1765;SDS011;880;52.452;8.656;2023-08-01T00:59:51;5.00;;;4.60;;
1765;SDS011;880;52.452;8.656;2023-08-01T01:02:18;5.90;;;4.50;;
1765;SDS011;880;52.452;8.656;2023-08-01T01:04:45;4.75;;;4.32;;
1765;SDS011;880;52.452;8.656;2023-08-01T01:07:12;5.00;;;4.60;;
1765;SDS011;880;52.452;8.656;2023-08-01T01:09:41;7.75;;;5.38;;
1765;SDS011;880;52.452;8.656;2023-08-01T01:12:08;5.82;;;5.30;;
1765;SDS011;880;52.452;8.656;2023-08-01T01:14:38;8.93;;;5.85;;
1765;SDS011;880;52.452;8.656;2023-08-01T01:17:06;6.00;;;5.43;;
1765;SDS011;880;52.452;8.656;2023-08-01T01:19:33;5.47;;;5.07;;
1765;SDS011;880;52.452;8.656;2023-08-01T01:22:00;5.32;;;4.93;;
1765;SDS011;880;52.452;8.656;2023-08-01T01:24:31;6.63;;;6.03;;
1765;SDS011;880;52.452;8.656;2023-08-01T01:27:00;6.40;;;5.80;;
1765;SDS011;880;52.452;8.656;2023-08-01T01:29:29;6.63;;;5.78;;
1765;SDS011;880;52.452;8.656;2023-08-01T01:34:29;6.15;;;5.63;;
1765;SDS011;880;52.452;8.656;2023-08-01T01:36:56;6.00;;;5.40;;
1765;SDS011;880;52.452;8.656;2023-08-01T01:39:23;6.57;;;5.13;;
1765;SDS011;880;52.452;8.656;2023-08-01T01:41:50;6.13;;;5.63;;
1765;SDS011;880;52.452;8.656;2023-08-01T01:44:17;4.50;;;4.10;;
1765;SDS011;880;52.452;8.656;2023-08-01T01:46:44;7.63;;;5.38;;
1765;SDS011;880;52.452;8.656;2023-08-01T01:49:13;6.43;;;5.93;;
1765;SDS011;880;52.452;8.656;2023-08-01T01:51:40;5.22;;;4.72;;
1765;SDS011;880;52.452;8.656;2023-08-01T01:54:07;5.82;;;4.38;;
1765;SDS011;880;52.452;8.656;2023-08-01T01:56:34;4.80;;;4.25;;
1765;SDS011;880;52.452;8.656;2023-08-01T01:59:02;4.07;;;3.78;;
1765;SDS011;880;52.452;8.656;2023-08-01T02:01:32;4.45;;;3.88;;
1765;SDS011;880;52.452;8.656;2023-08-01T02:03:59;4.25;;;3.78;;
1765;SDS011;880;52.452;8.656;2023-08-01T02:06:26;4.07;;;3.75;;
1765;SDS011;880;52.452;8.656;2023-08-01T02:08:54;4.65;;;3.60;;
1765;SDS011;880;52.452;8.656;2023-08-01T02:11:22;3.78;;;3.47;;
1765;SDS011;880;52.452;8.656;2023-08-01T02:13:50;4.30;;;3.92;;
1765;SDS011;880;52.452;8.656;2023-08-01T02:16:17;3.65;;;3.35;;
1765;SDS011;880;52.452;8.656;2023-08-01T02:18:44;4.60;;;4.25;;
1765;SDS011;880;52.452;8.656;2023-08-01T02:21:11;7.32;;;3.83;;
1765;SDS011;880;52.452;8.656;2023-08-01T02:23:38;4.03;;;3.72;;
1765;SDS011;880;52.452;8.656;2023-08-01T02:26:05;4.00;;;3.80;;
1765;SDS011;880;52.452;8.656;2023-08-01T02:28:34;3.85;;;3.65;;
1765;SDS011;880;52.452;8.656;2023-08-01T02:31:01;3.88;;;3.58;;
1765;SDS011;880;52.452;8.656;2023-08-01T02:33:28;6.05;;;5.55;;
1765;SDS011;880;52.452;8.656;2023-08-01T02:35:55;7.03;;;4.93;;
1765;SDS011;880;52.452;8.656;2023-08-01T02:38:23;5.50;;;3.70;;
1765;SDS011;880;52.452;8.656;2023-08-01T02:40:50;5.20;;;3.97;;
1765;SDS011;880;52.452;8.656;2023-08-01T02:43:17;4.63;;;4.15;;
1765;SDS011;880;52.452;8.656;2023-08-01T02:45:44;4.15;;;3.85;;
1765;SDS011;880;52.452;8.656;2023-08-01T02:48:12;7.90;;;4.50;;
1765;SDS011;880;52.452;8.656;2023-08-01T02:50:39;5.43;;;4.22;;
1765;SDS011;880;52.452;8.656;2023-08-01T02:53:06;3.58;;;3.30;;
1765;SDS011;880;52.452;8.656;2023-08-01T02:55:33;9.13;;;3.90;;
1765;SDS011;880;52.452;8.656;2023-08-01T02:58:00;3.83;;;3.60;;
1765;SDS011;880;52.452;8.656;2023-08-01T03:00:27;4.15;;;3.75;;
1765;SDS011;880;52.452;8.656;2023-08-01T03:02:54;4.80;;;3.97;;
1765;SDS011;880;52.452;8.656;2023-08-01T03:05:23;5.97;;;4.03;;
1765;SDS011;880;52.452;8.656;2023-08-01T03:07:50;5.20;;;4.10;;
1765;SDS011;880;52.452;8.656;2023-08-01T03:10:17;4.20;;;3.85;;
1765;SDS011;880;52.452;8.656;2023-08-01T03:13:01;6.72;;;4.22;;
1765;SDS011;880;52.452;8.656;2023-08-01T03:15:28;4.35;;;3.95;;
1765;SDS011;880;52.452;8.656;2023-08-01T03:17:55;5.60;;;3.55;;
1765;SDS011;880;52.452;8.656;2023-08-01T03:20:23;8.77;;;3.83;;
1765;SDS011;880;52.452;8.656;2023-08-01T03:22:50;4.32;;;3.92;;
1765;SDS011;880;52.452;8.656;2023-08-01T03:25:17;4.13;;;3.72;;
1765;SDS011;880;52.452;8.656;2023-08-01T03:27:44;4.32;;;3.45;;
1765;SDS011;880;52.452;8.656;2023-08-01T03:30:11;8.60;;;3.53;;
1765;SDS011;880;52.452;8.656;2023-08-01T03:32:39;3.67;;;3.38;;
1765;SDS011;880;52.452;8.656;2023-08-01T03:35:07;5.82;;;3.53;;
1765;SDS011;880;52.452;8.656;2023-08-01T03:37:34;5.85;;;3.67;;
1765;SDS011;880;52.452;8.656;2023-08-01T03:40:02;4.32;;;3.85;;
1765;SDS011;880;52.452;8.656;2023-08-01T03:42:29;7.20;;;4.13;;
1765;SDS011;880;52.452;8.656;2023-08-01T03:44:56;5.05;;;3.95;;
1765;SDS011;880;52.452;8.656;2023-08-01T03:47:23;5.13;;;3.83;;
1765;SDS011;880;52.452;8.656;2023-08-01T03:49:50;4.15;;;3.80;;
1765;SDS011;880;52.452;8.656;2023-08-01T03:52:17;6.50;;;4.32;;
1765;SDS011;880;52.452;8.656;2023-08-01T03:54:45;4.20;;;3.88;;
1765;SDS011;880;52.452;8.656;2023-08-01T03:57:13;5.20;;;4.72;;
1765;SDS011;880;52.452;8.656;2023-08-01T03:59:41;5.05;;;4.55;;
1765;SDS011;880;52.452;8.656;2023-08-01T04:02:08;6.60;;;5.25;;
1765;SDS011;880;52.452;8.656;2023-08-01T04:04:35;6.05;;;5.45;;
1765;SDS011;880;52.452;8.656;2023-08-01T04:07:03;7.10;;;5.68;;
1765;SDS011;880;52.452;8.656;2023-08-01T04:09:30;7.72;;;5.28;;
1765;SDS011;880;52.452;8.656;2023-08-01T04:11:57;7.07;;;6.38;;
1765;SDS011;880;52.452;8.656;2023-08-01T04:14:24;7.00;;;6.10;;
1765;SDS011;880;52.452;8.656;2023-08-01T04:16:51;8.50;;;5.97;;
1765;SDS011;880;52.452;8.656;2023-08-01T04:19:18;10.40;;;6.50;;
1765;SDS011;880;52.452;8.656;2023-08-01T04:21:48;8.82;;;7.35;;
1765;SDS011;880;52.452;8.656;2023-08-01T04:24:15;10.88;;;7.85;;
1765;SDS011;880;52.452;8.656;2023-08-01T04:26:42;6.85;;;6.20;;
1765;SDS011;880;52.452;8.656;2023-08-01T04:29:09;10.27;;;7.85;;
1765;SDS011;880;52.452;8.656;2023-08-01T04:31:36;11.30;;;8.35;;
1765;SDS011;880;52.452;8.656;2023-08-01T04:34:04;11.82;;;9.68;;
1765;SDS011;880;52.452;8.656;2023-08-01T04:36:31;15.23;;;9.82;;
1765;SDS011;880;52.452;8.656;2023-08-01T04:38:58;14.25;;;11.10;;
1765;SDS011;880;52.452;8.656;2023-08-01T04:41:25;16.55;;;12.02;;
1765;SDS011;880;52.452;8.656;2023-08-01T04:43:52;15.18;;;11.35;;
1765;SDS011;880;52.452;8.656;2023-08-01T04:46:19;11.85;;;10.20;;
1765;SDS011;880;52.452;8.656;2023-08-01T04:48:46;10.43;;;8.75;;
1765;SDS011;880;52.452;8.656;2023-08-01T04:51:17;11.23;;;8.82;;
1765;SDS011;880;52.452;8.656;2023-08-01T04:53:52;11.10;;;8.95;;
1765;SDS011;880;52.452;8.656;2023-08-01T04:56:19;9.93;;;8.30;;
1765;SDS011;880;52.452;8.656;2023-08-01T04:58:46;9.23;;;8.13;;
1765;SDS011;880;52.452;8.656;2023-08-01T05:01:13;8.85;;;7.72;;
1765;SDS011;880;52.452;8.656;2023-08-01T05:03:41;10.52;;;7.82;;
1765;SDS011;880;52.452;8.656;2023-08-01T05:06:08;13.32;;;8.68;;
1765;SDS011;880;52.452;8.656;2023-08-01T05:08:35;11.00;;;8.70;;
1765;SDS011;880;52.452;8.656;2023-08-01T05:11:02;11.23;;;8.10;;
1765;SDS011;880;52.452;8.656;2023-08-01T05:13:29;8.45;;;7.63;;
1765;SDS011;880;52.452;8.656;2023-08-01T05:15:56;12.40;;;10.10;;
1765;SDS011;880;52.452;8.656;2023-08-01T05:18:23;10.68;;;8.65;;
1765;SDS011;880;52.452;8.656;2023-08-01T05:20:53;11.20;;;8.07;;
1765;SDS011;880;52.452;8.656;2023-08-01T05:23:20;10.25;;;8.20;;
1765;SDS011;880;52.452;8.656;2023-08-01T05:25:47;10.70;;;8.40;;
1765;SDS011;880;52.452;8.656;2023-08-01T05:28:14;9.27;;;8.35;;
1765;SDS011;880;52.452;8.656;2023-08-01T05:30:41;11.27;;;9.23;;
1765;SDS011;880;52.452;8.656;2023-08-01T05:33:08;9.98;;;8.70;;
1765;SDS011;880;52.452;8.656;2023-08-01T05:35:35;11.98;;;9.00;;
1765;SDS011;880;52.452;8.656;2023-08-01T05:38:02;13.10;;;9.43;;
1765;SDS011;880;52.452;8.656;2023-08-01T05:40:29;13.65;;;9.23;;
1765;SDS011;880;52.452;8.656;2023-08-01T05:42:56;15.20;;;10.00;;
1765;SDS011;880;52.452;8.656;2023-08-01T05:45:23;12.13;;;9.48;;
1765;SDS011;880;52.452;8.656;2023-08-01T05:47:50;11.52;;;8.98;;
1765;SDS011;880;52.452;8.656;2023-08-01T05:50:17;12.10;;;9.23;;
1765;SDS011;880;52.452;8.656;2023-08-01T05:52:44;12.82;;;9.77;;
1765;SDS011;880;52.452;8.656;2023-08-01T05:55:11;14.27;;;10.38;;
1765;SDS011;880;52.452;8.656;2023-08-01T05:57:38;14.25;;;10.02;;
1765;SDS011;880;52.452;8.656;2023-08-01T06:00:06;13.52;;;11.30;;
1765;SDS011;880;52.452;8.656;2023-08-01T06:02:39;14.98;;;9.88;;
1765;SDS011;880;52.452;8.656;2023-08-01T06:05:06;14.05;;;9.48;;
1765;SDS011;880;52.452;8.656;2023-08-01T06:07:33;14.20;;;10.73;;
1765;SDS011;880;52.452;8.656;2023-08-01T06:10:01;13.32;;;9.88;;
1765;SDS011;880;52.452;8.656;2023-08-01T06:12:28;12.98;;;10.20;;
1765;SDS011;880;52.452;8.656;2023-08-01T06:14:55;14.00;;;10.63;;
1765;SDS011;880;52.452;8.656;2023-08-01T06:17:22;16.80;;;11.30;;
1765;SDS011;880;52.452;8.656;2023-08-01T06:19:49;14.05;;;10.68;;
1765;SDS011;880;52.452;8.656;2023-08-01T06:22:17;10.15;;;8.73;;
1765;SDS011;880;52.452;8.656;2023-08-01T06:24:44;17.08;;;9.60;;
1765;SDS011;880;52.452;8.656;2023-08-01T06:27:11;13.00;;;9.50;;
1765;SDS011;880;52.452;8.656;2023-08-01T06:29:38;10.90;;;9.73;;
1765;SDS011;880;52.452;8.656;2023-08-01T06:32:06;20.05;;;10.13;;
1765;SDS011;880;52.452;8.656;2023-08-01T06:34:33;16.05;;;9.82;;
1765;SDS011;880;52.452;8.656;2023-08-01T06:37:00;16.75;;;10.98;;
1765;SDS011;880;52.452;8.656;2023-08-01T06:39:27;16.08;;;10.77;;
1765;SDS011;880;52.452;8.656;2023-08-01T06:41:54;23.50;;;9.85;;
1765;SDS011;880;52.452;8.656;2023-08-01T06:44:21;16.90;;;11.32;;
1765;SDS011;880;52.452;8.656;2023-08-01T06:46:48;12.73;;;10.88;;
1765;SDS011;880;52.452;8.656;2023-08-01T06:49:15;11.13;;;9.95;;
1765;SDS011;880;52.452;8.656;2023-08-01T06:51:42;15.35;;;10.85;;
1765;SDS011;880;52.452;8.656;2023-08-01T06:54:09;10.80;;;9.75;;
1765;SDS011;880;52.452;8.656;2023-08-01T06:56:36;17.45;;;10.20;;
1765;SDS011;880;52.452;8.656;2023-08-01T06:59:04;9.85;;;8.50;;
1765;SDS011;880;52.452;8.656;2023-08-01T07:01:32;16.02;;;9.60;;
1765;SDS011;880;52.452;8.656;2023-08-01T07:03:59;13.40;;;10.15;;
1765;SDS011;880;52.452;8.656;2023-08-01T07:06:26;12.00;;;8.98;;
1765;SDS011;880;52.452;8.656;2023-08-01T07:08:53;14.85;;;9.63;;
1765;SDS011;880;52.452;8.656;2023-08-01T07:11:20;14.10;;;9.75;;
1765;SDS011;880;52.452;8.656;2023-08-01T07:13:47;9.40;;;8.48;;
1765;SDS011;880;52.452;8.656;2023-08-01T07:16:14;11.40;;;9.93;;
1765;SDS011;880;52.452;8.656;2023-08-01T07:18:41;15.50;;;10.25;;
1765;SDS011;880;52.452;8.656;2023-08-01T07:21:11;15.00;;;10.45;;
1765;SDS011;880;52.452;8.656;2023-08-01T07:23:38;11.68;;;8.25;;
1765;SDS011;880;52.452;8.656;2023-08-01T07:26:05;10.88;;;8.80;;
1765;SDS011;880;52.452;8.656;2023-08-01T07:28:32;9.70;;;7.88;;
1765;SDS011;880;52.452;8.656;2023-08-01T07:33:28;8.25;;;7.50;;
1765;SDS011;880;52.452;8.656;2023-08-01T07:35:55;14.10;;;8.80;;
1765;SDS011;880;52.452;8.656;2023-08-01T07:38:22;15.20;;;9.77;;
1765;SDS011;880;52.452;8.656;2023-08-01T07:40:50;16.45;;;10.18;;
1765;SDS011;880;52.452;8.656;2023-08-01T07:43:17;11.60;;;9.95;;
1765;SDS011;880;52.452;8.656;2023-08-01T07:45:45;11.73;;;10.38;;
1765;SDS011;880;52.452;8.656;2023-08-01T07:48:15;9.50;;;8.55;;
1765;SDS011;880;52.452;8.656;2023-08-01T07:50:43;9.40;;;8.43;;
1765;SDS011;880;52.452;8.656;2023-08-01T07:53:10;10.20;;;9.00;;
1765;SDS011;880;52.452;8.656;2023-08-01T07:55:37;13.93;;;9.60;;
1765;SDS011;880;52.452;8.656;2023-08-01T07:58:04;11.23;;;9.07;;
1765;SDS011;880;52.452;8.656;2023-08-01T08:00:31;13.05;;;9.30;;
1765;SDS011;880;52.452;8.656;2023-08-01T08:02:58;15.15;;;9.00;;
1765;SDS011;880;52.452;8.656;2023-08-01T08:05:25;12.60;;;9.70;;
1765;SDS011;880;52.452;8.656;2023-08-01T08:07:52;10.27;;;9.25;;
1765;SDS011;880;52.452;8.656;2023-08-01T08:10:19;10.07;;;9.18;;
1765;SDS011;880;52.452;8.656;2023-08-01T08:12:46;10.60;;;9.70;;
1765;SDS011;880;52.452;8.656;2023-08-01T08:15:13;12.57;;;9.88;;
1765;SDS011;880;52.452;8.656;2023-08-01T08:17:42;10.27;;;8.85;;
1765;SDS011;880;52.452;8.656;2023-08-01T08:20:09;11.85;;;9.30;;
1765;SDS011;880;52.452;8.656;2023-08-01T08:22:36;10.80;;;9.57;;
1765;SDS011;880;52.452;8.656;2023-08-01T08:25:03;9.85;;;8.88;;
1765;SDS011;880;52.452;8.656;2023-08-01T08:27:30;10.40;;;9.32;;
1765;SDS011;880;52.452;8.656;2023-08-01T08:29:57;17.27;;;10.80;;
1765;SDS011;880;52.452;8.656;2023-08-01T08:32:24;10.57;;;9.55;;
1765;SDS011;880;52.452;8.656;2023-08-01T08:34:51;9.15;;;8.35;;
1765;SDS011;880;52.452;8.656;2023-08-01T08:37:18;10.32;;;9.32;;
1765;SDS011;880;52.452;8.656;2023-08-01T08:39:46;9.90;;;9.00;;
1765;SDS011;880;52.452;8.656;2023-08-01T08:42:13;11.85;;;10.18;;
1765;SDS011;880;52.452;8.656;2023-08-01T08:44:42;9.05;;;8.32;;
1765;SDS011;880;52.452;8.656;2023-08-01T08:47:10;10.00;;;9.07;;
1765;SDS011;880;52.452;8.656;2023-08-01T08:49:39;9.80;;;9.15;;
1765;SDS011;880;52.452;8.656;2023-08-01T08:52:07;10.60;;;9.80;;
1765;SDS011;880;52.452;8.656;2023-08-01T08:54:35;9.43;;;8.52;;
1765;SDS011;880;52.452;8.656;2023-08-01T08:57:06;10.20;;;9.40;;
1765;SDS011;880;52.452;8.656;2023-08-01T08:59:34;8.48;;;8.00;;
1765;SDS011;880;52.452;8.656;2023-08-01T09:02:02;8.88;;;8.27;;
1765;SDS011;880;52.452;8.656;2023-08-01T09:04:33;9.43;;;8.82;;
1765;SDS011;880;52.452;8.656;2023-08-01T09:07:06;8.70;;;8.05;;
1765;SDS011;880;52.452;8.656;2023-08-01T09:09:40;7.82;;;7.15;;
1765;SDS011;880;52.452;8.656;2023-08-01T09:12:07;8.50;;;7.80;;
1765;SDS011;880;52.452;8.656;2023-08-01T09:14:35;12.07;;;8.23;;
1765;SDS011;880;52.452;8.656;2023-08-01T09:17:06;8.57;;;7.78;;
1765;SDS011;880;52.452;8.656;2023-08-01T09:19:36;8.65;;;7.85;;
1765;SDS011;880;52.452;8.656;2023-08-01T09:22:09;8.82;;;8.07;;
1765;SDS011;880;52.452;8.656;2023-08-01T09:24:38;7.97;;;7.25;;
1765;SDS011;880;52.452;8.656;2023-08-01T09:27:05;7.70;;;7.10;;
1765;SDS011;880;52.452;8.656;2023-08-01T09:29:34;8.88;;;6.80;;
1765;SDS011;880;52.452;8.656;2023-08-01T09:32:11;7.32;;;6.82;;
1765;SDS011;880;52.452;8.656;2023-08-01T09:34:41;7.43;;;6.72;;
1765;SDS011;880;52.452;8.656;2023-08-01T09:37:11;9.23;;;6.63;;
1765;SDS011;880;52.452;8.656;2023-08-01T09:39:38;7.78;;;6.85;;
1765;SDS011;880;52.452;8.656;2023-08-01T09:42:06;10.48;;;7.32;;
1765;SDS011;880;52.452;8.656;2023-08-01T09:44:34;7.55;;;6.93;;
1765;SDS011;880;52.452;8.656;2023-08-01T09:47:03;8.75;;;8.02;;
1765;SDS011;880;52.452;8.656;2023-08-01T09:49:33;8.27;;;7.35;;
1765;SDS011;880;52.452;8.656;2023-08-01T09:52:02;6.65;;;6.13;;
1765;SDS011;880;52.452;8.656;2023-08-01T09:54:30;7.03;;;6.63;;
1765;SDS011;880;52.452;8.656;2023-08-01T09:56:57;7.75;;;7.13;;
1765;SDS011;880;52.452;8.656;2023-08-01T09:59:25;9.27;;;8.65;;
1765;SDS011;880;52.452;8.656;2023-08-01T10:01:53;9.35;;;8.65;;
1765;SDS011;880;52.452;8.656;2023-08-01T10:04:25;11.77;;;8.27;;
1765;SDS011;880;52.452;8.656;2023-08-01T10:07:00;9.32;;;8.65;;
1765;SDS011;880;52.452;8.656;2023-08-01T10:09:34;8.77;;;7.88;;
1765;SDS011;880;52.452;8.656;2023-08-01T10:12:02;9.40;;;8.32;;
1765;SDS011;880;52.452;8.656;2023-08-01T10:14:32;9.20;;;8.38;;
1765;SDS011;880;52.452;8.656;2023-08-01T10:17:00;8.90;;;8.20;;
1765;SDS011;880;52.452;8.656;2023-08-01T10:19:30;10.45;;;9.85;;
1765;SDS011;880;52.452;8.656;2023-08-01T10:21:59;9.50;;;8.90;;
1765;SDS011;880;52.452;8.656;2023-08-01T10:24:28;8.23;;;7.22;;
1765;SDS011;880;52.452;8.656;2023-08-01T10:26:56;8.23;;;7.43;;
1765;SDS011;880;52.452;8.656;2023-08-01T10:29:34;10.63;;;8.27;;
1765;SDS011;880;52.452;8.656;2023-08-01T10:32:02;8.52;;;7.82;;
1765;SDS011;880;52.452;8.656;2023-08-01T10:34:29;8.98;;;8.23;;
1765;SDS011;880;52.452;8.656;2023-08-01T10:36:56;8.55;;;8.05;;
1765;SDS011;880;52.452;8.656;2023-08-01T10:39:25;8.95;;;8.23;;
1765;SDS011;880;52.452;8.656;2023-08-01T10:42:00;8.50;;;7.90;;
1765;SDS011;880;52.452;8.656;2023-08-01T10:44:31;9.32;;;8.63;;
1765;SDS011;880;52.452;8.656;2023-08-01T10:47:01;8.05;;;7.57;;
1765;SDS011;880;52.452;8.656;2023-08-01T10:54:59;10.30;;;9.30;;
1765;SDS011;880;52.452;8.656;2023-08-01T10:57:37;9.57;;;8.88;;
1765;SDS011;880;52.452;8.656;2023-08-01T11:00:06;10.20;;;9.52;;
1765;SDS011;880;52.452;8.656;2023-08-01T11:02:36;9.48;;;8.68;;
1765;SDS011;880;52.452;8.656;2023-08-01T11:05:04;8.02;;;7.57;;
1765;SDS011;880;52.452;8.656;2023-08-01T11:07:36;8.98;;;8.38;;
1765;SDS011;880;52.452;8.656;2023-08-01T11:12:36;8.63;;;7.82;;
1765;SDS011;880;52.452;8.656;2023-08-01T11:15:08;8.05;;;7.55;;
1765;SDS011;880;52.452;8.656;2023-08-01T11:17:40;7.90;;;7.50;;
1765;SDS011;880;52.452;8.656;2023-08-01T11:22:38;8.38;;;7.63;;
1765;SDS011;880;52.452;8.656;2023-08-01T11:25:30;9.48;;;8.40;;
1765;SDS011;880;52.452;8.656;2023-08-01T11:28:03;8.40;;;7.57;;
1765;SDS011;880;52.452;8.656;2023-08-01T11:30:38;9.93;;;8.05;;
1765;SDS011;880;52.452;8.656;2023-08-01T11:33:16;9.50;;;8.55;;
1765;SDS011;880;52.452;8.656;2023-08-01T11:35:54;9.93;;;8.00;;
1765;SDS011;880;52.452;8.656;2023-08-01T11:38:23;8.15;;;7.65;;
1765;SDS011;880;52.452;8.656;2023-08-01T11:40:59;6.22;;;5.75;;
1765;SDS011;880;52.452;8.656;2023-08-01T11:43:38;6.47;;;6.13;;
1765;SDS011;880;52.452;8.656;2023-08-01T11:46:09;6.38;;;5.90;;
1765;SDS011;880;52.452;8.656;2023-08-01T11:48:36;6.55;;;5.97;;
1765;SDS011;880;52.452;8.656;2023-08-01T11:51:04;6.07;;;5.68;;
1765;SDS011;880;52.452;8.656;2023-08-01T11:53:31;6.70;;;6.10;;
1765;SDS011;880;52.452;8.656;2023-08-01T11:56:07;6.72;;;6.18;;
1765;SDS011;880;52.452;8.656;2023-08-01T11:58:35;6.60;;;6.10;;
1765;SDS011;880;52.452;8.656;2023-08-01T12:01:08;6.65;;;5.90;;
1765;SDS011;880;52.452;8.656;2023-08-01T12:03:42;5.88;;;5.40;;
1765;SDS011;880;52.452;8.656;2023-08-01T12:06:13;6.50;;;5.80;;
1765;SDS011;880;52.452;8.656;2023-08-01T12:08:41;6.93;;;6.38;;
1765;SDS011;880;52.452;8.656;2023-08-01T12:11:23;6.45;;;6.00;;
1765;SDS011;880;52.452;8.656;2023-08-01T12:16:41;7.18;;;5.53;;
1765;SDS011;880;52.452;8.656;2023-08-01T12:19:17;9.90;;;5.80;;
1765;SDS011;880;52.452;8.656;2023-08-01T12:21:45;6.65;;;5.55;;
1765;SDS011;880;52.452;8.656;2023-08-01T12:24:14;5.75;;;5.10;;
1765;SDS011;880;52.452;8.656;2023-08-01T12:26:41;7.63;;;6.93;;
1765;SDS011;880;52.452;8.656;2023-08-01T12:29:08;5.82;;;5.25;;
1765;SDS011;880;52.452;8.656;2023-08-01T12:31:36;4.65;;;4.35;;
1765;SDS011;880;52.452;8.656;2023-08-01T12:34:04;5.20;;;4.85;;
1765;SDS011;880;52.452;8.656;2023-08-01T12:36:31;5.65;;;5.15;;
1765;SDS011;880;52.452;8.656;2023-08-01T12:38:58;6.68;;;6.10;;
1765;SDS011;880;52.452;8.656;2023-08-01T12:41:25;6.57;;;5.97;;
1765;SDS011;880;52.452;8.656;2023-08-01T12:43:52;7.38;;;6.68;;
1765;SDS011;880;52.452;8.656;2023-08-01T12:46:19;7.07;;;6.57;;
1765;SDS011;880;52.452;8.656;2023-08-01T12:48:46;6.88;;;6.28;;
1765;SDS011;880;52.452;8.656;2023-08-01T12:51:13;7.63;;;7.13;;
1765;SDS011;880;52.452;8.656;2023-08-01T12:53:41;7.03;;;6.45;;
1765;SDS011;880;52.452;8.656;2023-08-01T12:56:11;7.43;;;6.72;;
1765;SDS011;880;52.452;8.656;2023-08-01T12:58:38;7.38;;;6.78;;
1765;SDS011;880;52.452;8.656;2023-08-01T13:01:05;7.30;;;6.88;;
1765;SDS011;880;52.452;8.656;2023-08-01T13:03:33;8.50;;;7.78;;
1765;SDS011;880;52.452;8.656;2023-08-01T13:06:00;8.55;;;7.88;;
1765;SDS011;880;52.452;8.656;2023-08-01T13:08:27;9.32;;;8.52;;
1765;SDS011;880;52.452;8.656;2023-08-01T13:10:55;9.07;;;8.57;;
1765;SDS011;880;52.452;8.656;2023-08-01T13:13:25;8.43;;;7.93;;
1765;SDS011;880;52.452;8.656;2023-08-01T13:15:52;8.30;;;7.72;;
1765;SDS011;880;52.452;8.656;2023-08-01T13:18:20;9.77;;;9.10;;
1765;SDS011;880;52.452;8.656;2023-08-01T13:20:47;9.00;;;8.30;;
1765;SDS011;880;52.452;8.656;2023-08-01T13:23:14;9.15;;;8.63;;
1765;SDS011;880;52.452;8.656;2023-08-01T13:25:40;8.48;;;7.88;;
1765;SDS011;880;52.452;8.656;2023-08-01T13:28:08;9.10;;;8.60;;
1765;SDS011;880;52.452;8.656;2023-08-01T13:30:35;7.47;;;6.97;;
1765;SDS011;880;52.452;8.656;2023-08-01T13:33:02;7.75;;;7.25;;
1765;SDS011;880;52.452;8.656;2023-08-01T13:35:29;8.40;;;7.82;;
1765;SDS011;880;52.452;8.656;2023-08-01T13:37:56;8.38;;;7.80;;
1765;SDS011;880;52.452;8.656;2023-08-01T13:40:24;9.00;;;8.15;;
1765;SDS011;880;52.452;8.656;2023-08-01T13:42:52;7.78;;;7.32;;
1765;SDS011;880;52.452;8.656;2023-08-01T13:45:19;9.05;;;8.30;;
1765;SDS011;880;52.452;8.656;2023-08-01T13:47:46;8.27;;;7.88;;
1765;SDS011;880;52.452;8.656;2023-08-01T13:50:13;7.97;;;7.68;;
1765;SDS011;880;52.452;8.656;2023-08-01T13:52:40;8.60;;;8.13;;
1765;SDS011;880;52.452;8.656;2023-08-01T13:55:08;8.82;;;8.10;;
1765;SDS011;880;52.452;8.656;2023-08-01T13:57:36;7.20;;;6.63;;
1765;SDS011;880;52.452;8.656;2023-08-01T14:00:03;8.77;;;8.27;;
1765;SDS011;880;52.452;8.656;2023-08-01T14:02:40;8.27;;;7.78;;
1765;SDS011;880;52.452;8.656;2023-08-01T14:05:08;9.20;;;8.70;;
1765;SDS011;880;52.452;8.656;2023-08-01T14:07:36;9.38;;;8.93;;
1765;SDS011;880;52.452;8.656;2023-08-01T14:10:08;8.63;;;8.18;;
1765;SDS011;880;52.452;8.656;2023-08-01T14:12:36;8.43;;;7.93;;
1765;SDS011;880;52.452;8.656;2023-08-01T14:15:03;9.30;;;8.70;;
1765;SDS011;880;52.452;8.656;2023-08-01T14:17:31;8.65;;;8.15;;
1765;SDS011;880;52.452;8.656;2023-08-01T14:19:58;9.65;;;8.88;;
1765;SDS011;880;52.452;8.656;2023-08-01T14:22:25;8.95;;;8.40;;
1765;SDS011;880;52.452;8.656;2023-08-01T14:24:52;9.63;;;9.05;;
1765;SDS011;880;52.452;8.656;2023-08-01T14:27:19;10.05;;;9.43;;
1765;SDS011;880;52.452;8.656;2023-08-01T14:29:46;9.13;;;8.52;;
1765;SDS011;880;52.452;8.656;2023-08-01T14:32:15;8.80;;;8.27;;
1765;SDS011;880;52.452;8.656;2023-08-01T14:34:45;9.57;;;8.65;;
1765;SDS011;880;52.452;8.656;2023-08-01T14:37:12;9.02;;;8.52;;
1765;SDS011;880;52.452;8.656;2023-08-01T14:39:39;8.57;;;7.97;;
1765;SDS011;880;52.452;8.656;2023-08-01T14:42:06;8.05;;;7.65;;
1765;SDS011;880;52.452;8.656;2023-08-01T14:44:33;8.80;;;8.32;;
1765;SDS011;880;52.452;8.656;2023-08-01T14:47:00;9.13;;;8.55;;
1765;SDS011;880;52.452;8.656;2023-08-01T14:49:27;7.97;;;7.40;;
1765;SDS011;880;52.452;8.656;2023-08-01T14:51:56;9.20;;;8.60;;
1765;SDS011;880;52.452;8.656;2023-08-01T14:54:23;8.40;;;7.75;;
1765;SDS011;880;52.452;8.656;2023-08-01T14:57:06;9.13;;;8.60;;
1765;SDS011;880;52.452;8.656;2023-08-01T14:59:34;8.57;;;7.97;;
1765;SDS011;880;52.452;8.656;2023-08-01T15:02:02;8.75;;;8.20;;
1765;SDS011;880;52.452;8.656;2023-08-01T15:04:29;8.70;;;7.90;;
1765;SDS011;880;52.452;8.656;2023-08-01T15:06:56;8.68;;;8.02;;
1765;SDS011;880;52.452;8.656;2023-08-01T15:09:23;8.82;;;8.32;;
1765;SDS011;880;52.452;8.656;2023-08-01T15:11:50;11.82;;;8.80;;
1765;SDS011;880;52.452;8.656;2023-08-01T15:14:17;8.88;;;8.30;;
1765;SDS011;880;52.452;8.656;2023-08-01T15:16:44;8.50;;;7.95;;
1765;SDS011;880;52.452;8.656;2023-08-01T15:19:11;8.38;;;7.65;;
1765;SDS011;880;52.452;8.656;2023-08-01T15:21:38;8.80;;;8.07;;
1765;SDS011;880;52.452;8.656;2023-08-01T15:24:06;8.88;;;8.32;;
1765;SDS011;880;52.452;8.656;2023-08-01T15:26:33;9.20;;;8.70;;
1765;SDS011;880;52.452;8.656;2023-08-01T15:29:00;9.18;;;8.68;;
1765;SDS011;880;52.452;8.656;2023-08-01T15:31:27;8.88;;;8.30;;
1765;SDS011;880;52.452;8.656;2023-08-01T15:33:54;8.77;;;8.13;;
1765;SDS011;880;52.452;8.656;2023-08-01T15:36:28;9.60;;;9.00;;
1765;SDS011;880;52.452;8.656;2023-08-01T15:38:56;9.32;;;8.68;;
1765;SDS011;880;52.452;8.656;2023-08-01T15:41:24;9.48;;;8.73;;
1765;SDS011;880;52.452;8.656;2023-08-01T15:43:52;8.98;;;8.48;;
1765;SDS011;880;52.452;8.656;2023-08-01T15:46:19;8.63;;;8.02;;
1765;SDS011;880;52.452;8.656;2023-08-01T15:48:47;8.52;;;7.90;;